Decoded Metar for KAEL (ALBERT LEA in MN, USA) (IATA:AEL) | Meteo·Mobile Aviation Weather
aviador You're here:

KAEL Decoded Metar

ALBERT LEA in MN, USA
Report Time2019-02-18 09:36:00
UTC Time2019-02-18 09:49:35
Flight Rules vfr VFR
WindCalm
Visibility9999 m
Phenomena:N/A
Clouds:Scattered 095 Hf
Expected CloudBase > 800 ft AGL from Temp-Dew spread
CeilingNone
Temp-13°C (ISA -26)
Dew Point-15°C (85% RH)
AAT-16.4°C
QNH1023 hPa
Density Alt-2,257 ft
Elevation1,257 ft
Report Wrong Elevation
Raw Report
KAEL 180936Z AUTO 00000KT 10SM SCT095 M13/M15 A3022 RMK AO2=

Extra information for KAEL:More info

Metar Taf Metar & Taf Last 4 Metars F.Rules Stats Wind Profile Meteogram Temp Stats Airport Information Weather charts Add Link Nearby VenuesMetar ALERT Operation Metar Decoded Social comments

AIRNAV info for KAEL